Time;durP1;ratioP1;P1;durP2;ratioP2;P2;SDS_P1;SDS_P2;PMS_P1;PMS_P2;Temp;Humidity;BMP_temperature;BMP_pressure;BME280_temperature;BME280_humidity;BME280_pressure;Samples;Min_cycle;Max_cycle;Signal;HPM_P1;HPM_P2
2021/10/29 00:00:32;;;;;;;17.58;15.65;;;9.30;99.90;;;;;;5085965;28;20285;-70
2021/10/29 00:02:59;;;;;;;22.85;15.63;;;9.40;99.90;;;;;;5097961;28;20229;-70
2021/10/29 00:05:28;;;;;;;23.80;16.15;;;9.40;99.90;;;;;;5092230;28;20202;-70
2021/10/29 00:07:55;;;;;;;17.33;15.18;;;9.40;99.90;;;;;;5094753;28;20202;-71
2021/10/29 00:10:23;;;;;;;24.40;17.33;;;9.30;99.90;;;;;;5095854;28;20205;-73
2021/10/29 00:12:50;;;;;;;23.02;16.15;;;9.30;99.90;;;;;;5099447;28;20222;-70
2021/10/29 00:15:18;;;;;;;22.20;17.63;;;9.30;99.90;;;;;;5094059;28;20259;-70
2021/10/29 00:17:45;;;;;;;21.17;17.45;;;9.10;99.90;;;;;;5094661;28;20205;-71
2021/10/29 00:20:12;;;;;;;26.00;18.98;;;9.10;99.90;;;;;;5092199;28;20208;-71
2021/10/29 00:22:41;;;;;;;20.10;16.27;;;9.10;99.90;;;;;;5090264;28;20276;-69
2021/10/29 00:25:09;;;;;;;28.38;20.88;;;9.20;99.90;;;;;;5094493;28;20206;-69
2021/10/29 00:27:36;;;;;;;29.15;20.63;;;9.10;99.90;;;;;;5088692;28;20225;-72
2021/10/29 00:30:04;;;;;;;26.38;18.83;;;9.10;99.90;;;;;;5084341;28;20199;-69
2021/10/29 00:32:31;;;;;;;27.90;18.63;;;9.10;99.90;;;;;;5089732;28;20569;-69
2021/10/29 00:34:58;;;;;;;28.00;20.40;;;9.10;99.90;;;;;;5091340;28;20217;-69
2021/10/29 00:37:26;;;;;;;31.15;19.90;;;9.00;99.90;;;;;;5088009;28;20213;-69
2021/10/29 00:39:54;;;;;;;27.85;21.25;;;9.00;99.90;;;;;;5090595;28;20198;-69
2021/10/29 00:42:31;;;;;;;37.35;24.55;;;8.90;99.90;;;;;;5101445;28;20309;-69
2021/10/29 00:45:00;;;;;;;31.77;21.30;;;8.90;99.90;;;;;;5095951;28;20284;-70
2021/10/29 00:47:27;;;;;;;38.42;24.50;;;8.90;99.90;;;;;;5094812;28;20221;-69
2021/10/29 00:49:55;;;;;;;32.13;23.13;;;8.90;99.90;;;;;;5093206;28;20221;-69
2021/10/29 00:52:23;;;;;;;30.58;23.90;;;8.90;99.90;;;;;;5086609;28;20226;-69
2021/10/29 00:54:50;;;;;;;30.67;23.70;;;8.80;99.90;;;;;;5093559;28;20645;-69
2021/10/29 00:57:19;;;;;;;32.95;22.98;;;8.80;99.90;;;;;;5093268;28;20202;-69
2021/10/29 00:59:48;;;;;;;30.67;22.25;;;8.80;99.90;;;;;;5093892;28;20202;-70
2021/10/29 01:02:16;;;;;;;32.95;24.40;;;8.90;99.90;;;;;;5096031;28;20231;-69
2021/10/29 01:04:43;;;;;;;34.90;24.35;;;8.90;99.90;;;;;;5098745;28;20664;-69
2021/10/29 01:07:10;;;;;;;32.80;22.10;;;8.80;99.90;;;;;;5101404;28;20206;-69
2021/10/29 01:09:37;;;;;;;37.70;26.98;;;8.90;99.90;;;;;;5093977;28;20205;-69
2021/10/29 01:12:05;;;;;;;34.75;25.50;;;8.90;99.90;;;;;;5100490;28;20222;-69
2021/10/29 01:14:40;;;;;;;31.80;23.05;;;8.80;99.90;;;;;;5099819;28;20206;-69
2021/10/29 01:17:08;;;;;;;32.22;23.30;;;8.80;99.90;;;;;;5091550;28;20202;-69
2021/10/29 01:19:39;;;;;;;34.60;23.58;;;8.80;99.90;;;;;;5095021;28;20201;-69
2021/10/29 01:22:08;;;;;;;33.25;23.27;;;8.90;99.90;;;;;;5093558;28;20689;-69
2021/10/29 01:24:35;;;;;;;33.30;24.13;;;8.80;99.90;;;;;;5095524;28;20268;-69
2021/10/29 01:27:10;;;;;;;35.10;24.88;;;8.90;99.90;;;;;;5094926;28;20236;-69
2021/10/29 01:29:38;;;;;;;31.75;23.63;;;8.80;99.90;;;;;;5093593;28;20198;-69
2021/10/29 01:32:06;;;;;;;35.72;24.75;;;8.80;99.90;;;;;;5094313;28;20245;-69
2021/10/29 01:34:35;;;;;;;30.50;22.65;;;8.80;99.90;;;;;;5091016;28;20289;-70
2021/10/29 01:37:05;;;;;;;32.25;21.85;;;8.80;99.90;;;;;;5092967;28;20243;-70
2021/10/29 01:39:34;;;;;;;33.80;23.60;;;8.80;99.90;;;;;;5094873;28;20663;-69
2021/10/29 01:42:02;;;;;;;27.85;21.08;;;8.80;99.90;;;;;;5094914;28;20218;-69
2021/10/29 01:44:29;;;;;;;30.25;21.02;;;8.90;99.90;;;;;;5093783;28;20214;-70
2021/10/29 01:46:56;;;;;;;32.17;23.52;;;8.90;99.90;;;;;;5089461;28;20207;-70
2021/10/29 01:49:25;;;;;;;27.60;21.80;;;8.80;99.90;;;;;;5094496;28;20202;-69
2021/10/29 01:51:52;;;;;;;31.67;22.67;;;8.90;99.90;;;;;;5090653;28;20243;-70
2021/10/29 01:54:19;;;;;;;32.65;23.40;;;8.90;99.90;;;;;;5091914;28;20199;-70
2021/10/29 01:56:48;;;;;;;28.60;21.13;;;8.80;99.90;;;;;;5085271;28;20463;-69
2021/10/29 01:59:15;;;;;;;28.77;21.88;;;8.80;99.90;;;;;;5082901;28;20199;-70
2021/10/29 02:01:42;;;;;;;29.15;22.88;;;8.80;99.90;;;;;;5089340;28;20208;-70
2021/10/29 02:04:09;;;;;;;30.33;23.38;;;8.70;99.90;;;;;;5085030;28;20194;-70
2021/10/29 02:06:36;;;;;;;31.10;22.25;;;8.70;99.90;;;;;;5086576;28;20249;-70
2021/10/29 02:09:10;;;;;;;26.73;20.30;;;8.70;99.90;;;;;;5092584;28;20194;-70
2021/10/29 02:11:38;;;;;;;27.88;20.00;;;8.70;99.90;;;;;;5095355;28;20213;-70
2021/10/29 02:14:07;;;;;;;26.40;19.70;;;8.60;99.90;;;;;;5093027;28;20202;-69
2021/10/29 02:16:34;;;;;;;31.95;22.10;;;8.70;99.90;;;;;;5094613;28;20230;-68
2021/10/29 02:19:01;;;;;;;26.75;20.13;;;8.70;99.90;;;;;;5093018;28;20198;-69
2021/10/29 02:21:30;;;;;;;31.02;21.27;;;8.70;99.90;;;;;;5099151;28;20202;-69
2021/10/29 02:23:58;;;;;;;22.42;17.02;;;8.70;99.90;;;;;;5093123;28;20198;-69
2021/10/29 02:26:26;;;;;;;29.05;19.67;;;8.80;99.90;;;;;;5092899;28;20642;-69
2021/10/29 02:28:54;;;;;;;28.13;19.65;;;8.80;99.90;;;;;;5091926;28;20194;-70
2021/10/29 02:31:22;;;;;;;25.30;18.10;;;8.70;99.90;;;;;;5093718;28;20214;-70
2021/10/29 02:33:50;;;;;;;35.25;19.85;;;8.70;99.90;;;;;;5100870;28;20221;-69
2021/10/29 02:36:17;;;;;;;24.92;19.10;;;8.70;99.90;;;;;;5096867;28;20198;-69
2021/10/29 02:38:45;;;;;;;23.05;18.17;;;8.80;99.90;;;;;;5093091;28;20240;-70
2021/10/29 02:41:13;;;;;;;28.77;19.73;;;8.70;99.90;;;;;;5098053;28;20199;-69
2021/10/29 02:43:42;;;;;;;28.55;19.92;;;8.70;99.90;;;;;;5093129;28;20233;-69
2021/10/29 02:46:09;;;;;;;25.13;18.15;;;8.70;99.90;;;;;;5092070;28;20202;-69
2021/10/29 02:48:37;;;;;;;29.00;20.45;;;8.70;99.90;;;;;;5093097;28;20205;-69
2021/10/29 02:51:05;;;;;;;27.10;19.20;;;8.70;99.90;;;;;;5092749;28;20202;-69
2021/10/29 02:53:33;;;;;;;27.98;20.05;;;8.70;99.90;;;;;;5091274;28;20222;-70
2021/10/29 02:56:00;;;;;;;31.50;20.83;;;8.60;99.90;;;;;;5089005;28;20202;-69
2021/10/29 02:58:30;;;;;;;28.60;19.58;;;8.50;99.90;;;;;;5092591;28;20774;-70
2021/10/29 03:00:57;;;;;;;28.02;19.40;;;8.50;99.90;;;;;;5090483;28;20259;-69
2021/10/29 03:03:25;;;;;;;24.40;18.65;;;8.50;99.90;;;;;;5090305;28;20230;-70
2021/10/29 03:05:53;;;;;;;31.75;23.63;;;8.50;99.90;;;;;;5088344;28;20209;-69
2021/10/29 03:08:21;;;;;;;29.23;19.67;;;8.40;99.90;;;;;;5085823;28;20217;-72
2021/10/29 03:10:48;;;;;;;31.25;21.70;;;8.40;99.90;;;;;;5096755;28;20209;-70
2021/10/29 03:13:17;;;;;;;32.30;20.40;;;8.40;99.90;;;;;;5092349;28;20226;-69
2021/10/29 03:15:46;;;;;;;31.70;20.50;;;8.30;99.90;;;;;;5091415;28;20209;-69
2021/10/29 03:18:20;;;;;;;26.15;18.83;;;8.40;99.90;;;;;;5080866;28;20205;-69
2021/10/29 03:20:49;;;;;;;30.92;21.23;;;8.40;99.90;;;;;;5092522;28;20268;-69
2021/10/29 03:23:19;;;;;;;26.60;19.83;;;8.30;99.90;;;;;;5085184;28;20225;-70
2021/10/29 03:25:46;;;;;;;29.38;21.38;;;8.30;99.90;;;;;;5090900;28;20206;-70
2021/10/29 03:28:14;;;;;;;28.75;19.35;;;8.30;99.90;;;;;;5086236;28;20723;-70
2021/10/29 03:30:42;;;;;;;32.38;21.00;;;8.20;99.90;;;;;;5089084;28;20251;-70
2021/10/29 03:33:10;;;;;;;28.15;20.98;;;8.20;99.90;;;;;;5089924;28;20232;-70
2021/10/29 03:35:38;;;;;;;31.52;21.20;;;8.30;99.90;;;;;;5091895;28;20264;-70
2021/10/29 03:41:08;;;;;;;29.83;19.75;;;8.30;99.90;;;;;;5042011;28;20199;-69
2021/10/29 03:43:38;;;;;;;27.40;19.05;;;8.20;99.90;;;;;;5043197;28;20224;-71
2021/10/29 03:46:09;;;;;;;27.73;19.50;;;8.20;99.90;;;;;;5058536;28;20209;-70
2021/10/29 03:48:43;;;;;;;29.25;22.17;;;8.30;99.90;;;;;;5090441;28;20221;-69
2021/10/29 03:51:14;;;;;;;26.48;18.10;;;8.20;99.90;;;;;;5081761;28;20201;-70
2021/10/29 03:53:46;;;;;;;28.75;21.42;;;8.20;99.90;;;;;;5087935;28;20236;-70
2021/10/29 03:56:19;;;;;;;27.63;19.80;;;8.30;99.90;;;;;;5083908;28;20191;-69
2021/10/29 03:58:47;;;;;;;27.90;20.48;;;8.30;99.90;;;;;;5089485;28;20198;-69
2021/10/29 04:01:14;;;;;;;28.08;19.25;;;8.30;99.90;;;;;;5088369;28;20198;-70
2021/10/29 04:03:42;;;;;;;30.73;19.58;;;8.30;99.90;;;;;;5087888;28;20230;-70
2021/10/29 04:06:09;;;;;;;27.92;19.85;;;8.20;99.90;;;;;;5087314;28;20198;-70
2021/10/29 04:08:37;;;;;;;30.85;19.85;;;8.20;99.90;;;;;;5089167;28;20218;-71
2021/10/29 04:11:05;;;;;;;27.42;20.67;;;8.20;99.90;;;;;;5096744;28;20257;-70
2021/10/29 04:13:37;;;;;;;26.17;19.38;;;8.20;99.90;;;;;;5093796;28;20229;-69
2021/10/29 04:16:05;;;;;;;29.27;19.38;;;8.20;99.90;;;;;;5098349;28;20254;-70
2021/10/29 04:18:35;;;;;;;29.48;19.10;;;8.20;99.90;;;;;;5091514;28;20197;-70
2021/10/29 04:21:03;;;;;;;29.38;20.88;;;8.20;99.90;;;;;;5092720;28;20575;-70
2021/10/29 04:23:30;;;;;;;28.17;20.70;;;8.20;99.90;;;;;;5091473;28;20563;-70
2021/10/29 04:25:57;;;;;;;31.95;20.88;;;8.10;99.90;;;;;;5091165;28;20215;-70
2021/10/29 04:28:26;;;;;;;26.40;19.50;;;8.10;99.90;;;;;;5091534;28;20335;-70
2021/10/29 04:30:54;;;;;;;26.65;19.58;;;8.00;99.90;;;;;;5092221;28;20204;-70
2021/10/29 04:33:22;;;;;;;34.35;20.10;;;8.00;99.90;;;;;;5091175;28;20229;-70
2021/10/29 04:35:53;;;;;;;31.10;18.73;;;8.10;99.90;;;;;;5091959;28;20553;-70
2021/10/29 04:38:21;;;;;;;25.50;18.40;;;8.10;99.90;;;;;;5092392;28;20528;-69
2021/10/29 04:40:50;;;;;;;32.60;22.30;;;8.10;99.90;;;;;;5091769;28;20643;-70
2021/10/29 04:43:17;;;;;;;31.25;19.40;;;8.00;99.90;;;;;;5090876;28;20225;-69
2021/10/29 04:45:45;;;;;;;26.70;18.48;;;8.10;99.90;;;;;;5087928;28;20214;-70
2021/10/29 04:48:14;;;;;;;27.55;19.08;;;8.00;99.90;;;;;;5086179;28;20589;-70
2021/10/29 04:50:41;;;;;;;27.65;18.83;;;8.10;99.90;;;;;;5087592;28;20209;-70
2021/10/29 04:53:10;;;;;;;34.20;19.58;;;8.00;99.90;;;;;;5091917;28;20263;-70
2021/10/29 04:55:37;;;;;;;33.88;19.13;;;8.00;99.90;;;;;;5083994;28;20209;-70
2021/10/29 04:58:06;;;;;;;26.75;18.98;;;7.90;99.90;;;;;;5093044;28;20201;-69
2021/10/29 05:00:34;;;;;;;31.40;20.95;;;7.90;99.90;;;;;;5088332;28;20222;-70
2021/10/29 05:03:02;;;;;;;29.05;20.55;;;7.90;99.90;;;;;;5084724;28;20234;-70
2021/10/29 05:05:30;;;;;;;29.40;20.38;;;7.90;99.90;;;;;;5091537;28;20220;-70
2021/10/29 05:07:58;;;;;;;32.20;23.77;;;8.00;99.90;;;;;;5094614;28;20233;-71
2021/10/29 05:10:25;;;;;;;34.88;20.60;;;7.90;99.90;;;;;;5089843;28;20201;-69
2021/10/29 05:12:52;;;;;;;32.17;19.70;;;7.90;99.90;;;;;;5097165;28;20224;-70
2021/10/29 05:15:19;;;;;;;30.35;21.88;;;7.90;99.90;;;;;;5095733;28;20286;-72
2021/10/29 05:17:47;;;;;;;32.25;20.05;;;7.90;99.90;;;;;;5097831;28;20203;-71
2021/10/29 05:20:16;;;;;;;28.40;19.73;;;7.90;99.90;;;;;;5088996;28;20197;-72
2021/10/29 05:22:45;;;;;;;28.70;20.10;;;7.90;99.90;;;;;;5089521;28;20221;-72
2021/10/29 05:25:13;;;;;;;30.08;20.02;;;7.90;99.90;;;;;;5080480;28;20564;-71
2021/10/29 05:27:40;;;;;;;33.58;22.23;;;7.90;99.90;;;;;;5089851;28;20221;-71
2021/10/29 05:30:10;;;;;;;29.10;19.10;;;7.90;99.90;;;;;;5084274;28;20709;-71
2021/10/29 05:32:38;;;;;;;35.00;19.90;;;7.90;99.90;;;;;;5085886;28;20305;-74
2021/10/29 05:35:08;;;;;;;30.38;20.08;;;7.90;99.90;;;;;;5082792;28;20217;-74
2021/10/29 05:37:36;;;;;;;29.98;20.15;;;7.90;99.90;;;;;;5080502;28;20300;-74
2021/10/29 05:40:07;;;;;;;34.10;21.20;;;7.80;99.90;;;;;;5100179;28;20205;-71
2021/10/29 05:42:34;;;;;;;30.80;21.90;;;7.90;99.90;;;;;;5093388;28;20299;-72
2021/10/29 05:45:03;;;;;;;31.33;20.88;;;7.80;99.90;;;;;;5106472;28;20300;-71
2021/10/29 05:47:30;;;;;;;29.35;19.55;;;7.90;99.90;;;;;;5086529;28;20225;-70
2021/10/29 05:49:58;;;;;;;30.50;19.80;;;7.80;99.90;;;;;;5087256;28;20204;-70
2021/10/29 05:52:28;;;;;;;32.70;19.08;;;7.90;99.90;;;;;;5088456;28;20229;-72
2021/10/29 05:55:14;;;;;;;34.70;19.60;;;7.90;99.90;;;;;;5086044;28;20206;-70
2021/10/29 05:57:44;;;;;;;31.23;19.60;;;7.90;99.90;;;;;;5093666;28;20193;-71
2021/10/29 06:00:12;;;;;;;38.63;20.63;;;7.80;99.90;;;;;;5089765;28;20201;-71
2021/10/29 06:02:40;;;;;;;26.98;18.80;;;7.80;99.90;;;;;;5087125;28;20264;-71
2021/10/29 06:05:08;;;;;;;32.75;19.73;;;7.80;99.90;;;;;;5090252;28;20318;-71
2021/10/29 06:07:36;;;;;;;27.23;20.05;;;7.80;99.90;;;;;;5092387;28;20308;-70
2021/10/29 06:10:06;;;;;;;23.25;17.48;;;7.80;99.90;;;;;;5091686;28;20204;-71
2021/10/29 06:12:35;;;;;;;31.27;21.20;;;7.80;99.90;;;;;;5099556;28;20290;-70
2021/10/29 06:15:04;;;;;;;29.40;20.65;;;7.80;99.90;;;;;;5096930;28;20266;-71
2021/10/29 06:17:32;;;;;;;30.75;19.63;;;7.80;99.90;;;;;;5088444;28;20281;-69
2021/10/29 06:20:00;;;;;;;29.75;19.45;;;7.70;99.90;;;;;;5097566;28;20288;-71
2021/10/29 06:22:29;;;;;;;33.28;20.95;;;7.80;99.90;;;;;;5098804;28;20308;-69
2021/10/29 06:25:05;;;;;;;29.20;20.58;;;7.80;99.90;;;;;;5093852;28;20698;-71
2021/10/29 06:30:18;;;;;;;34.45;19.95;;;7.80;99.90;;;;;;5095329;28;20207;-72
2021/10/29 06:32:45;;;;;;;29.48;20.25;;;7.90;99.90;;;;;;5094841;28;20225;-71
2021/10/29 06:35:14;;;;;;;32.10;20.70;;;8.00;99.90;;;;;;5094020;28;20201;-71
2021/10/29 06:37:43;;;;;;;33.20;20.65;;;8.00;99.90;;;;;;5093958;28;20207;-69
2021/10/29 06:40:14;;;;;;;32.97;20.27;;;8.00;99.90;;;;;;5092152;28;20228;-71
2021/10/29 06:42:46;;;;;;;23.45;17.90;;;8.00;99.90;;;;;;5093478;28;20621;-68
2021/10/29 06:45:23;;;;;;;32.35;20.00;;;8.00;99.90;;;;;;5085577;28;20249;-71
2021/10/29 06:48:04;;;;;;;27.77;19.25;;;8.10;99.90;;;;;;5090474;28;20233;-74
2021/10/29 07:01:45;;;;;;;22.30;15.60;;;9.50;99.90;;;;;;5088069;28;20252;-72
2021/10/29 07:40:06;;;;;;;14.80;12.73;;;15.80;99.70;;;;;;5089390;28;20247;-74
2021/10/29 07:42:39;;;;;;;22.70;15.10;;;16.20;99.10;;;;;;5095734;28;20473;-74
2021/10/29 07:45:09;;;;;;;20.58;13.60;;;16.30;98.50;;;;;;5089319;28;21007;-73
2021/10/29 07:47:36;;;;;;;17.60;12.77;;;16.40;97.90;;;;;;5102894;28;20209;-72
2021/10/29 07:50:06;;;;;;;15.17;12.97;;;16.70;98.00;;;;;;5090124;28;20448;-75
2021/10/29 07:52:36;;;;;;;17.97;13.60;;;16.70;97.50;;;;;;5093988;28;20470;-72
2021/10/29 07:55:04;;;;;;;19.57;15.23;;;16.90;97.10;;;;;;5093371;28;20803;-72
2021/10/29 07:57:31;;;;;;;22.33;15.00;;;17.20;96.50;;;;;;5094560;28;20482;-72
2021/10/29 07:59:58;;;;;;;20.53;15.77;;;17.30;95.80;;;;;;5092196;28;20440;-72
2021/10/29 08:02:26;;;;;;;21.53;12.83;;;17.60;95.70;;;;;;5087170;28;20467;-72
2021/10/29 08:04:54;;;;;;;16.33;13.83;;;17.80;95.10;;;;;;5091711;28;20483;-71
2021/10/29 08:07:22;;;;;;;21.90;14.97;;;17.60;95.10;;;;;;5092255;28;20956;-71
2021/10/29 08:09:51;;;;;;;22.67;14.10;;;17.70;94.70;;;;;;5087798;28;20490;-73
2021/10/29 08:12:19;;;;;;;21.50;15.70;;;17.70;94.80;;;;;;5098972;28;20484;-71
2021/10/29 08:14:48;;;;;;;21.43;14.40;;;17.50;95.30;;;;;;5091137;28;20448;-72
2021/10/29 08:17:17;;;;;;;18.43;14.40;;;17.90;94.70;;;;;;5087512;28;20443;-71
2021/10/29 08:19:44;;;;;;;26.97;14.83;;;18.40;93.40;;;;;;5088182;28;20440;-71
2021/10/29 08:22:12;;;;;;;16.23;12.47;;;18.50;93.50;;;;;;5091021;28;20479;-71
2021/10/29 08:24:40;;;;;;;17.35;14.30;;;18.90;93.40;;;;;;5083712;28;20907;-72
2021/10/29 08:27:10;;;;;;;19.10;14.70;;;19.50;91.70;;;;;;5093812;28;20689;-71
2021/10/29 08:29:38;;;;;;;19.13;14.33;;;19.40;91.20;;;;;;5090927;28;20981;-74
2021/10/29 08:32:07;;;;;;;19.77;13.60;;;19.50;91.40;;;;;;5090249;28;20977;-74
2021/10/29 08:34:34;;;;;;;18.10;13.50;;;19.70;91.50;;;;;;5091671;28;20457;-71
2021/10/29 08:37:03;;;;;;;17.47;12.80;;;19.70;91.20;;;;;;5088499;28;20447;-74
2021/10/29 08:39:30;;;;;;;21.50;13.10;;;19.60;91.10;;;;;;5097236;28;20471;-72
2021/10/29 08:42:01;;;;;;;21.13;13.60;;;20.20;91.00;;;;;;5089913;28;20479;-72
2021/10/29 08:44:32;;;;;;;20.03;14.20;;;20.30;90.50;;;;;;5089051;28;20452;-75
2021/10/29 08:47:01;;;;;;;14.80;12.80;;;21.10;89.00;;;;;;5086774;28;20436;-71
2021/10/29 08:49:29;;;;;;;21.50;13.80;;;21.10;88.40;;;;;;5091439;28;20796;-68
2021/10/29 08:51:57;;;;;;;19.03;12.80;;;21.10;87.90;;;;;;5089156;28;20510;-70
2021/10/29 08:54:25;;;;;;;18.83;14.00;;;21.40;87.30;;;;;;5084068;28;20491;-70
2021/10/29 08:56:53;;;;;;;15.27;13.63;;;21.10;86.60;;;;;;5093423;28;20472;-71
2021/10/29 08:59:26;;;;;;;20.60;14.10;;;21.20;87.70;;;;;;5088308;28;20922;-72
2021/10/29 09:02:02;;;;;;;18.07;13.10;;;21.20;87.20;;;;;;5094643;28;20969;-71
2021/10/29 09:04:41;;;;;;;18.93;13.73;;;20.80;88.40;;;;;;5092974;28;20440;-71
2021/10/29 09:10:21;;;;;;;14.20;12.23;;;20.90;88.40;;;;;;5089426;28;20471;-71
2021/10/29 09:32:25;;;;;;;18.27;14.70;;;20.50;87.40;;;;;;5094150;28;20447;-73
2021/10/29 09:34:59;;;;;;;19.23;14.40;;;21.00;89.70;;;;;;5103369;28;20447;-73
2021/10/29 09:37:36;;;;;;;19.67;14.00;;;20.70;88.90;;;;;;5092277;28;20917;-74
2021/10/29 09:40:09;;;;;;;18.10;13.10;;;20.80;90.40;;;;;;5093032;28;20864;-73
2021/10/29 09:42:38;;;;;;;14.97;12.63;;;20.30;90.60;;;;;;5093129;28;20825;-73
2021/10/29 09:45:14;;;;;;;18.10;14.00;;;20.10;90.90;;;;;;5093285;28;20487;-74
2021/10/29 09:47:49;;;;;;;18.53;14.00;;;20.30;91.20;;;;;;5093534;28;20455;-74
2021/10/29 09:50:27;;;;;;;18.80;13.47;;;20.30;91.40;;;;;;5093454;28;20483;-73
2021/10/29 09:56:00;;;;;;;17.00;13.03;;;20.50;91.00;;;;;;5087017;28;20433;-73
2021/10/29 09:58:28;;;;;;;16.73;13.03;;;20.40;91.40;;;;;;5088084;28;20500;-72
2021/10/29 10:00:56;;;;;;;16.23;12.00;;;20.30;91.50;;;;;;5092368;28;20447;-72
2021/10/29 10:03:26;;;;;;;21.50;13.60;;;20.30;91.70;;;;;;5095678;28;20470;-74
2021/10/29 10:05:56;;;;;;;15.83;11.77;;;20.00;91.90;;;;;;5094206;28;20849;-73
2021/10/29 10:08:28;;;;;;;15.40;12.07;;;19.50;92.90;;;;;;5094354;28;20531;-73
2021/10/29 10:10:58;;;;;;;15.17;12.53;;;19.30;92.90;;;;;;5094584;28;20506;-73
2021/10/29 10:13:26;;;;;;;17.63;12.90;;;19.40;93.30;;;;;;5094510;28;20520;-73
2021/10/29 10:15:56;;;;;;;15.93;11.83;;;19.20;93.70;;;;;;5092856;28;20445;-73
2021/10/29 10:18:24;;;;;;;18.23;13.30;;;19.20;93.80;;;;;;5093987;28;20452;-73
2021/10/29 10:20:52;;;;;;;13.87;11.50;;;18.60;94.30;;;;;;5090904;28;20495;-73
2021/10/29 10:23:26;;;;;;;13.93;11.00;;;18.70;94.90;;;;;;5093611;28;20575;-73
2021/10/29 10:26:15;;;;;;;14.70;11.20;;;18.20;95.90;;;;;;5092609;28;20456;-73
2021/10/29 10:41:04;;;;;;;14.27;10.50;;;18.30;97.20;;;;;;5091926;28;20534;-72
2021/10/29 10:46:18;;;;;;;12.37;10.67;;;18.00;97.20;;;;;;5057214;28;20420;-73
2021/10/29 10:48:51;;;;;;;11.90;10.70;;;17.60;98.40;;;;;;5091913;28;20480;-73
2021/10/29 10:54:37;;;;;;;13.30;10.90;;;17.60;99.70;;;;;;5089839;28;20432;-73
2021/10/29 10:57:22;;;;;;;12.97;10.03;;;17.60;99.90;;;;;;5094208;28;20456;-73
2021/10/29 11:00:06;;;;;;;14.57;10.40;;;17.80;99.90;;;;;;5089717;28;20479;-72
2021/10/29 11:11:14;;;;;;;15.73;9.77;;;17.90;99.90;;;;;;5093907;28;20464;-73
2021/10/29 11:13:53;;;;;;;11.30;8.90;;;18.00;99.30;;;;;;5093354;28;20853;-73
2021/10/29 11:16:27;;;;;;;11.67;8.57;;;17.80;98.80;;;;;;5089579;28;20920;-72
2021/10/29 11:18:58;;;;;;;11.93;9.67;;;17.90;98.40;;;;;;5095349;28;20446;-72
2021/10/29 11:21:34;;;;;;;15.43;9.40;;;18.00;98.10;;;;;;5093269;28;20550;-73
2021/10/29 11:24:03;;;;;;;14.90;9.87;;;17.80;98.70;;;;;;5092991;28;20448;-73
2021/10/29 11:26:33;;;;;;;12.33;9.60;;;17.80;99.00;;;;;;5092966;28;20451;-73
2021/10/29 11:29:04;;;;;;;11.30;9.07;;;17.80;99.20;;;;;;5091158;28;20498;-73
2021/10/29 11:31:36;;;;;;;12.80;8.67;;;17.80;99.00;;;;;;5089359;28;20513;-74
2021/10/29 11:34:05;;;;;;;11.10;9.07;;;17.60;99.70;;;;;;5092667;28;20754;-73
2021/10/29 11:36:35;;;;;;;13.50;9.60;;;17.50;99.90;;;;;;5094404;28;20496;-73
2021/10/29 11:39:05;;;;;;;12.77;10.67;;;17.50;99.90;;;;;;5089924;28;20436;-73
2021/10/29 11:41:36;;;;;;;13.60;11.03;;;17.40;99.90;;;;;;5090205;28;20851;-73
2021/10/29 11:44:07;;;;;;;12.73;10.70;;;17.20;99.90;;;;;;5100279;28;20454;-74
2021/10/29 11:46:36;;;;;;;12.17;9.80;;;17.10;99.90;;;;;;5090810;28;20440;-73
2021/10/29 11:49:12;;;;;;;12.73;10.00;;;17.20;99.90;;;;;;5086424;28;20476;-73
2021/10/29 11:51:40;;;;;;;12.20;10.00;;;17.20;99.90;;;;;;5088833;28;20767;-73
2021/10/29 11:54:18;;;;;;;11.60;10.20;;;17.10;99.90;;;;;;5092191;28;20555;-73
2021/10/29 11:56:55;;;;;;;14.27;9.90;;;17.20;99.90;;;;;;5085715;28;20936;-73
2021/10/29 12:07:48;;;;;;;11.97;9.77;;;17.20;99.90;;;;;;5092885;28;20472;-72
2021/10/29 12:10:22;;;;;;;15.23;8.70;;;17.30;99.90;;;;;;5094524;28;20484;-72
2021/10/29 12:12:54;;;;;;;9.83;8.37;;;17.40;99.90;;;;;;5096176;28;20481;-72
2021/10/29 12:15:26;;;;;;;9.10;8.20;;;17.50;99.90;;;;;;5109443;28;20479;-72
2021/10/29 12:17:57;;;;;;;10.40;8.80;;;17.70;99.90;;;;;;5099402;28;20456;-72
2021/10/29 12:20:27;;;;;;;10.23;8.63;;;17.70;99.90;;;;;;5095802;28;20436;-71
2021/10/29 12:22:57;;;;;;;9.60;7.93;;;17.70;99.90;;;;;;5096029;28;20511;-71
2021/10/29 12:25:30;;;;;;;9.03;7.10;;;17.80;99.90;;;;;;5094447;28;20527;-71
2021/10/29 12:28:01;;;;;;;12.33;8.40;;;17.80;99.90;;;;;;5095528;28;20809;-72
2021/10/29 12:30:34;;;;;;;10.43;8.17;;;17.80;99.90;;;;;;5089225;28;20479;-72
2021/10/29 12:33:25;;;;;;;8.00;7.20;;;17.80;99.90;;;;;;5082546;28;20551;-71
2021/10/29 12:53:16;;;;;;;9.30;7.00;;;18.00;99.40;;;;;;5096829;28;20506;-72
2021/10/29 13:01:37;;;;;;;7.97;6.43;;;17.90;99.10;;;;;;5087142;28;20485;-71
2021/10/29 13:04:09;;;;;;;6.80;5.37;;;18.00;99.20;;;;;;5095818;28;20448;-72
2021/10/29 13:06:39;;;;;;;10.07;6.80;;;18.10;98.60;;;;;;5093383;28;20452;-73
2021/10/29 13:09:16;;;;;;;8.43;6.10;;;18.20;98.30;;;;;;5096706;28;20846;-72
2021/10/29 13:11:46;;;;;;;7.13;6.13;;;18.20;98.30;;;;;;5094413;28;20448;-72
2021/10/29 13:14:16;;;;;;;9.93;6.73;;;18.30;98.60;;;;;;5093808;28;20851;-72
2021/10/29 13:16:45;;;;;;;7.13;6.23;;;17.90;98.50;;;;;;5093445;28;20922;-72
2021/10/29 13:36:03;;;;;;;7.73;6.17;;;18.20;99.40;;;;;;5093118;28;20948;-73
2021/10/29 13:52:27;;;;;;;6.07;3.80;;;18.10;97.90;;;;;;5094148;28;20439;-72
2021/10/29 13:55:03;;;;;;;5.87;4.73;;;18.20;98.30;;;;;;5088615;28;20513;-73
2021/10/29 13:58:02;;;;;;;5.77;4.00;;;18.20;98.40;;;;;;5092943;28;20444;-72
2021/10/29 14:24:20;;;;;;;10.97;6.73;;;17.90;99.90;;;;;;5092857;28;20485;-72
2021/10/29 14:31:06;;;;;;;7.60;6.47;;;17.20;99.90;;;;;;5087133;28;21173;-73
2021/10/29 14:33:37;;;;;;;6.33;5.73;;;17.10;99.90;;;;;;5092213;28;20471;-73
2021/10/29 14:36:09;;;;;;;8.93;6.17;;;17.20;99.90;;;;;;5091521;28;20998;-72
2021/10/29 14:38:52;;;;;;;9.00;5.38;;;17.20;99.90;;;;;;5096116;28;20444;-72
2021/10/29 14:41:28;;;;;;;8.00;5.20;;;17.10;99.90;;;;;;5093305;28;20207;-73
2021/10/29 14:43:59;;;;;;;8.87;5.73;;;17.10;99.90;;;;;;5091879;28;20494;-73
2021/10/29 14:46:37;;;;;;;6.10;5.50;;;17.00;99.90;;;;;;5092906;28;20760;-72
2021/10/29 14:49:11;;;;;;;8.23;5.57;;;17.00;99.90;;;;;;5089255;28;20491;-72
2021/10/29 15:03:02;;;;;;;7.90;6.07;;;16.60;99.90;;;;;;5093638;28;20448;-72
2021/10/29 15:05:42;;;;;;;7.95;6.55;;;16.50;99.90;;;;;;5081738;28;20308;-73
2021/10/29 15:17:06;;;;;;;8.10;6.57;;;16.30;99.90;;;;;;5086041;28;20211;-74
2021/10/29 15:28:12;;;;;;;7.10;6.00;;;16.20;99.90;;;;;;5088293;28;20641;-74
2021/10/29 15:30:45;;;;;;;7.05;6.05;;;16.10;99.90;;;;;;5093533;28;20478;-73
2021/10/29 15:41:48;;;;;;;8.55;6.75;;;16.00;99.90;;;;;;5130005;27;20259;-74
2021/10/29 15:44:19;;;;;;;8.20;7.05;;;15.90;99.90;;;;;;5129052;28;20188;-73
2021/10/29 15:46:54;;;;;;;11.75;6.75;;;15.80;99.90;;;;;;5128299;27;20193;-74
2021/10/29 15:49:33;;;;;;;7.35;6.18;;;15.70;99.90;;;;;;5125216;28;20194;-71
2021/10/29 15:52:06;;;;;;;6.50;5.57;;;15.70;99.90;;;;;;5112453;28;20593;-72
2021/10/29 15:54:40;;;;;;;7.38;6.25;;;15.60;99.90;;;;;;5131920;28;20531;-73
2021/10/29 15:57:08;;;;;;;9.48;7.47;;;15.50;99.90;;;;;;5129851;28;20253;-72
2021/10/29 15:59:44;;;;;;;9.90;6.90;;;15.40;99.90;;;;;;5126780;28;20205;-70
2021/10/29 16:02:31;;;;;;;8.57;7.40;;;15.30;99.90;;;;;;5127526;28;20304;-72
2021/10/29 16:18:46;;;;;;;11.98;8.45;;;14.80;99.90;;;;;;5121717;28;20708;-74
2021/10/29 16:21:14;;;;;;;15.07;8.95;;;14.80;99.90;;;;;;5119825;28;20593;-74
2021/10/29 16:23:42;;;;;;;10.93;8.98;;;14.80;99.90;;;;;;5129793;28;20312;-74
2021/10/29 16:26:12;;;;;;;11.35;7.57;;;14.70;99.90;;;;;;5122621;28;20205;-74
2021/10/29 16:28:41;;;;;;;11.18;7.95;;;14.60;99.90;;;;;;5129401;28;20228;-73
2021/10/29 16:31:11;;;;;;;10.15;7.75;;;14.50;99.90;;;;;;5127905;28;20216;-74
2021/10/29 16:33:39;;;;;;;9.60;6.70;;;14.50;99.90;;;;;;5127082;28;20224;-74
2021/10/29 16:36:06;;;;;;;11.85;8.07;;;14.40;99.90;;;;;;5129833;28;20225;-74
2021/10/29 16:38:35;;;;;;;10.98;7.10;;;14.40;99.90;;;;;;5118874;28;20193;-72
2021/10/29 16:41:03;;;;;;;12.43;7.70;;;14.40;99.90;;;;;;5131485;28;20201;-73
2021/10/29 16:43:40;;;;;;;11.38;8.70;;;14.40;99.90;;;;;;5129703;28;20445;-72
2021/10/29 16:46:08;;;;;;;12.20;8.15;;;14.30;99.90;;;;;;5109714;28;20255;-75
2021/10/29 16:48:35;;;;;;;8.18;7.38;;;14.30;99.90;;;;;;5105032;28;20198;-72
2021/10/29 16:51:03;;;;;;;8.18;7.35;;;14.20;99.90;;;;;;5114189;28;20205;-71
2021/10/29 16:53:30;;;;;;;9.32;7.25;;;14.10;99.90;;;;;;5115561;28;20296;-73
2021/10/29 16:56:00;;;;;;;9.35;8.45;;;14.10;99.90;;;;;;5115925;28;20385;-73